createdAt,value
2023-01-23T00:00:18.043Z,32.13
2023-01-23T00:02:45.591Z,32.35
2023-01-23T00:05:13.049Z,30.83
2023-01-23T00:07:42.011Z,34.97
2023-01-23T00:10:10.140Z,32.88
2023-01-23T00:12:37.449Z,31.80
2023-01-23T00:15:06.714Z,32.75
2023-01-23T00:17:34.329Z,31.48
2023-01-23T00:20:01.955Z,30.40
2023-01-23T00:22:29.959Z,30.30
2023-01-23T00:24:58.690Z,30.85
2023-01-23T00:27:26.085Z,30.23
2023-01-23T00:29:53.500Z,29.38
2023-01-23T00:32:20.807Z,29.25
2023-01-23T00:34:48.372Z,28.23
2023-01-23T00:37:16.411Z,28.35
2023-01-23T00:39:45.340Z,27.77
2023-01-23T00:42:14.249Z,28.33
2023-01-23T00:44:42.316Z,27.70
2023-01-23T00:47:09.882Z,26.73
2023-01-23T00:49:37.237Z,28.25
2023-01-23T00:52:07.306Z,25.60
2023-01-23T00:54:34.643Z,24.52
2023-01-23T00:57:01.982Z,24.80
2023-01-23T00:59:33.474Z,24.95
2023-01-23T01:02:00.931Z,25.23
2023-01-23T01:04:28.260Z,24.02
2023-01-23T01:06:55.559Z,23.83
2023-01-23T01:09:23.093Z,24.45
2023-01-23T01:11:50.427Z,22.10
2023-01-23T01:14:17.798Z,22.70
2023-01-23T01:16:46.607Z,22.98
2023-01-23T01:19:14.377Z,23.50
2023-01-23T01:21:42.174Z,21.42
2023-01-23T01:24:09.925Z,22.45
2023-01-23T01:26:37.458Z,23.10
2023-01-23T01:29:04.955Z,21.70
2023-01-23T01:31:32.578Z,21.63
2023-01-23T01:34:01.436Z,22.35
2023-01-23T01:36:29.096Z,21.95
2023-01-23T01:38:57.105Z,22.58
2023-01-23T01:41:24.686Z,20.75
2023-01-23T01:43:53.252Z,22.08
2023-01-23T01:46:22.701Z,22.40
2023-01-23T01:48:57.452Z,22.10
2023-01-23T01:51:28.785Z,21.90
2023-01-23T01:53:58.779Z,20.92
2023-01-23T01:56:26.590Z,21.88
2023-01-23T01:58:54.348Z,22.02
2023-01-23T02:01:21.757Z,22.17
2023-01-23T02:03:50.579Z,20.77
2023-01-23T02:06:18.274Z,23.15
2023-01-23T02:08:49.151Z,22.67
2023-01-23T02:11:18.436Z,23.23
2023-01-23T02:13:46.005Z,23.10
2023-01-23T02:16:14.124Z,22.05
2023-01-23T02:18:44.494Z,22.48
2023-01-23T02:21:12.336Z,22.25
2023-01-23T02:23:54.252Z,22.63
2023-01-23T02:26:24.617Z,21.63
2023-01-23T02:28:53.380Z,23.20
2023-01-23T02:31:20.796Z,23.05
2023-01-23T02:33:50.022Z,21.92
2023-01-23T02:36:18.082Z,23.42
2023-01-23T02:38:50.894Z,23.45
2023-01-23T02:41:19.454Z,23.13
2023-01-23T02:43:49.222Z,22.15
2023-01-23T02:46:18.883Z,21.70
2023-01-23T02:48:47.560Z,21.20
2023-01-23T02:51:16.915Z,22.17
2023-01-23T02:53:45.091Z,21.35
2023-01-23T02:56:12.478Z,21.75
2023-01-23T02:58:57.369Z,20.00
2023-01-23T03:01:27.288Z,20.00
2023-01-23T03:03:56.659Z,19.42
2023-01-23T03:06:24.383Z,20.73
2023-01-23T03:08:51.756Z,22.02
2023-01-23T03:11:19.618Z,21.52
2023-01-23T03:13:47.743Z,23.00
2023-01-23T03:16:15.432Z,21.38
2023-01-23T03:18:53.843Z,22.60
2023-01-23T03:21:22.101Z,22.90
2023-01-23T03:23:49.398Z,23.15
2023-01-23T03:26:17.922Z,21.63
2023-01-23T03:29:02.918Z,23.40
2023-01-23T03:33:58.769Z,22.73
2023-01-23T03:36:26.071Z,23.08
2023-01-23T03:39:11.118Z,21.58
2023-01-23T03:44:09.237Z,24.20
2023-01-23T03:46:36.645Z,23.48
2023-01-23T03:49:05.555Z,22.55
2023-01-23T03:51:33.132Z,23.70
2023-01-23T03:54:00.409Z,22.38
2023-01-23T03:56:27.958Z,22.13
2023-01-23T03:58:57.409Z,22.10
2023-01-23T04:01:25.442Z,23.35
2023-01-23T04:03:52.742Z,22.30
2023-01-23T04:06:21.401Z,23.70
2023-01-23T04:08:48.846Z,21.90
2023-01-23T04:11:16.278Z,24.42
2023-01-23T04:13:43.810Z,23.83
2023-01-23T04:16:15.059Z,24.60
2023-01-23T04:18:42.564Z,23.75
2023-01-23T04:21:09.973Z,24.63
2023-01-23T04:23:38.667Z,21.50
2023-01-23T04:26:05.975Z,25.58
2023-01-23T04:28:33.397Z,23.92
2023-01-23T04:31:01.748Z,24.38
2023-01-23T04:33:29.392Z,25.55
2023-01-23T04:35:57.536Z,27.20
2023-01-23T04:38:25.252Z,25.92
2023-01-23T04:40:54.336Z,25.02
2023-01-23T04:43:22.038Z,26.75
2023-01-23T04:45:51.391Z,25.13
2023-01-23T04:48:18.769Z,23.10
2023-01-23T04:50:46.066Z,24.70
2023-01-23T04:53:13.965Z,22.65
2023-01-23T04:55:41.294Z,23.55
2023-01-23T04:58:11.537Z,24.23
2023-01-23T05:00:38.857Z,22.88
2023-01-23T05:03:06.313Z,23.05
2023-01-23T05:05:33.742Z,22.70
2023-01-23T05:08:01.133Z,22.10
2023-01-23T05:10:28.470Z,22.80
2023-01-23T05:12:55.809Z,22.65
2023-01-23T05:15:24.478Z,22.55
2023-01-23T05:17:51.791Z,21.92
2023-01-23T05:20:20.422Z,21.45
2023-01-23T05:22:53.272Z,21.10
2023-01-23T05:25:21.737Z,21.73
2023-01-23T05:27:49.369Z,20.20
2023-01-23T05:30:17.198Z,21.83
2023-01-23T05:32:45.955Z,22.10
2023-01-23T05:35:13.244Z,20.98
2023-01-23T05:37:40.539Z,19.80
2023-01-23T05:40:09.357Z,20.27
2023-01-23T05:42:36.878Z,22.88
2023-01-23T05:45:04.356Z,22.35
2023-01-23T05:47:31.642Z,22.90
2023-01-23T05:50:00.970Z,23.77
2023-01-23T05:52:28.344Z,22.80
2023-01-23T05:54:55.737Z,21.92
2023-01-23T05:57:23.153Z,21.33
2023-01-23T05:59:50.424Z,22.77
2023-01-23T06:02:18.003Z,22.58
2023-01-23T06:04:47.557Z,22.80
2023-01-23T06:07:17.134Z,23.40
2023-01-23T06:09:44.526Z,24.30
2023-01-23T06:12:12.353Z,24.40
2023-01-23T06:14:39.947Z,23.80
2023-01-23T06:17:07.418Z,24.73
2023-01-23T06:19:35.031Z,24.88
2023-01-23T06:22:02.408Z,25.05
2023-01-23T06:24:31.324Z,24.65
2023-01-23T06:26:58.776Z,25.38
2023-01-23T06:29:26.037Z,23.23
2023-01-23T06:31:53.365Z,23.02
2023-01-23T06:34:20.684Z,23.75
2023-01-23T06:36:48.025Z,25.00
2023-01-23T06:39:15.802Z,24.65
2023-01-23T06:41:44.521Z,25.58
2023-01-23T06:44:12.968Z,24.00
2023-01-23T06:46:41.939Z,26.33
2023-01-23T06:49:11.675Z,24.85
2023-01-23T06:51:39.037Z,26.42
2023-01-23T06:54:06.442Z,25.15
2023-01-23T06:56:34.455Z,25.88
2023-01-23T06:59:03.140Z,25.95
2023-01-23T07:01:31.090Z,25.10
2023-01-23T07:03:58.400Z,25.48
2023-01-23T07:06:25.711Z,26.10
2023-01-23T07:08:53.074Z,24.67
2023-01-23T07:11:20.457Z,24.92
2023-01-23T07:13:47.761Z,25.83
2023-01-23T07:16:18.825Z,23.67
2023-01-23T07:18:46.170Z,25.23
2023-01-23T07:21:13.524Z,23.90
2023-01-23T07:23:40.834Z,23.50
2023-01-23T07:26:09.504Z,23.92
2023-01-23T07:28:37.227Z,24.88
2023-01-23T07:31:05.111Z,24.08
2023-01-23T07:33:34.698Z,22.58
2023-01-23T07:36:02.252Z,22.05
2023-01-23T07:38:29.506Z,24.33
2023-01-23T07:40:58.677Z,22.25
2023-01-23T07:43:26.439Z,21.33
2023-01-23T07:45:53.803Z,22.95
2023-01-23T07:48:21.133Z,22.45
2023-01-23T07:50:50.198Z,21.40
2023-01-23T07:53:17.638Z,21.67
2023-01-23T07:55:45.317Z,23.25
2023-01-23T07:58:12.867Z,21.23
2023-01-23T08:00:41.679Z,21.73
2023-01-23T08:03:09.036Z,21.10
2023-01-23T08:05:36.385Z,22.30
2023-01-23T08:08:13.116Z,20.98
2023-01-23T08:10:41.263Z,22.23
2023-01-23T08:13:08.760Z,21.23
2023-01-23T08:15:37.563Z,22.35
2023-01-23T08:18:05.692Z,21.20
2023-01-23T08:20:33.707Z,20.83
2023-01-23T08:23:02.053Z,20.08
2023-01-23T08:25:30.847Z,20.17
2023-01-23T08:27:58.458Z,20.70
2023-01-23T08:30:25.801Z,20.17
2023-01-23T08:32:53.280Z,20.10
2023-01-23T08:35:20.562Z,19.52
2023-01-23T08:37:47.936Z,19.45
2023-01-23T08:40:15.626Z,19.63
2023-01-23T08:42:44.265Z,19.77
2023-01-23T08:45:11.979Z,20.50
2023-01-23T08:47:39.294Z,20.63
2023-01-23T08:50:07.313Z,19.80
2023-01-23T08:52:35.234Z,19.98
2023-01-23T08:55:02.813Z,19.42
2023-01-23T08:57:30.249Z,18.85
2023-01-23T08:59:58.971Z,18.83
2023-01-23T09:02:26.323Z,18.52
2023-01-23T09:04:53.660Z,18.30
2023-01-23T09:07:20.984Z,19.45
2023-01-23T09:09:48.567Z,19.92
2023-01-23T09:12:16.129Z,19.77
2023-01-23T09:14:45.140Z,20.08
2023-01-23T09:17:13.819Z,19.83
2023-01-23T09:19:41.154Z,19.83
2023-01-23T09:22:08.454Z,20.33
2023-01-23T09:24:36.055Z,20.73
2023-01-23T09:27:03.374Z,20.92
2023-01-23T09:29:30.830Z,19.88
2023-01-23T09:31:58.920Z,21.15
2023-01-23T09:34:27.896Z,21.23
2023-01-23T09:36:55.250Z,19.75
2023-01-23T09:39:22.885Z,19.30
2023-01-23T09:41:50.607Z,19.77
2023-01-23T09:44:20.872Z,19.15
2023-01-23T09:46:50.481Z,19.65
2023-01-23T09:49:20.690Z,20.33
2023-01-23T09:51:52.560Z,20.27
2023-01-23T09:54:27.824Z,19.65
2023-01-23T09:56:55.848Z,19.55
2023-01-23T09:59:28.754Z,20.58
2023-01-23T10:01:56.164Z,21.30
2023-01-23T10:04:24.166Z,21.88
2023-01-23T10:07:09.260Z,23.05
2023-01-23T10:12:10.833Z,20.85
2023-01-23T10:15:02.465Z,22.58
2023-01-23T10:17:35.284Z,20.70
2023-01-23T10:20:14.842Z,20.55
2023-01-23T10:22:47.123Z,20.13
2023-01-23T10:25:18.574Z,21.77
2023-01-23T10:27:48.928Z,22.63
2023-01-23T10:30:21.852Z,22.17
2023-01-23T10:32:51.706Z,22.13
2023-01-23T10:35:20.945Z,20.90
2023-01-23T10:37:51.712Z,20.80
2023-01-23T10:40:40.923Z,21.35
2023-01-23T10:43:13.700Z,19.83
2023-01-23T10:45:41.659Z,19.80
2023-01-23T10:48:23.857Z,19.50
2023-01-23T10:50:51.497Z,19.70
2023-01-23T10:53:20.584Z,19.23
2023-01-23T10:55:49.152Z,19.40
2023-01-23T10:58:28.684Z,19.33
2023-01-23T11:00:56.042Z,19.38
2023-01-23T11:03:31.359Z,19.95
2023-01-23T11:06:02.315Z,18.35
2023-01-23T11:08:31.258Z,17.73
2023-01-23T11:11:18.409Z,17.80
2023-01-23T11:13:48.224Z,17.08
2023-01-23T11:16:16.209Z,16.75
2023-01-23T11:18:44.704Z,17.35
2023-01-23T11:21:21.312Z,17.45
2023-01-23T11:23:48.598Z,16.23
2023-01-23T11:26:30.822Z,17.17
2023-01-23T11:28:59.498Z,15.48
2023-01-23T11:31:27.748Z,16.17
2023-01-23T11:33:58.101Z,15.05
2023-01-23T11:36:32.697Z,14.55
2023-01-23T11:39:02.848Z,17.55
2023-01-23T11:41:33.993Z,16.95
2023-01-23T11:44:07.315Z,15.30
2023-01-23T11:46:45.341Z,14.73
2023-01-23T11:49:23.603Z,14.88
2023-01-23T11:51:54.598Z,14.43
2023-01-23T11:54:31.892Z,12.07
2023-01-23T11:57:03.201Z,12.70
2023-01-23T11:59:43.665Z,11.55
2023-01-23T12:02:20.815Z,12.43
2023-01-23T12:05:00.788Z,12.85
2023-01-23T12:07:28.532Z,11.63
2023-01-23T12:10:03.525Z,11.57
2023-01-23T12:12:40.184Z,10.70
2023-01-23T12:15:16.062Z,10.55
2023-01-23T12:17:49.660Z,10.65
2023-01-23T12:20:23.969Z,9.65
2023-01-23T12:22:57.460Z,10.15
2023-01-23T12:25:31.122Z,10.35
2023-01-23T12:28:01.773Z,10.15
2023-01-23T12:30:45.175Z,10.55
2023-01-23T12:33:21.177Z,10.27
2023-01-23T12:35:51.955Z,10.00
2023-01-23T12:38:24.915Z,10.82
2023-01-23T12:40:54.210Z,9.68
2023-01-23T12:43:31.737Z,9.52
2023-01-23T12:46:05.661Z,9.80
2023-01-23T12:48:36.074Z,9.70
2023-01-23T12:51:08.608Z,10.45
2023-01-23T12:53:38.266Z,9.38
2023-01-23T12:56:08.653Z,9.80
2023-01-23T12:58:37.028Z,9.43
2023-01-23T13:01:13.932Z,9.57
2023-01-23T13:03:52.630Z,9.68
2023-01-23T13:06:30.661Z,10.10
2023-01-23T13:09:16.722Z,9.48
2023-01-23T13:11:48.077Z,9.43
2023-01-23T13:14:30.290Z,8.88
2023-01-23T13:17:02.792Z,9.68
2023-01-23T13:20:00.135Z,9.30
2023-01-23T13:22:32.156Z,10.05
2023-01-23T13:25:12.509Z,9.60
2023-01-23T13:27:41.234Z,11.43
2023-01-23T13:30:31.724Z,11.07
2023-01-23T13:33:03.775Z,11.70
2023-01-23T13:35:52.828Z,11.45
2023-01-23T13:38:32.079Z,11.38
2023-01-23T13:41:19.189Z,9.70
2023-01-23T13:43:52.935Z,9.27
2023-01-23T13:46:26.987Z,8.65
2023-01-23T14:21:07.133Z,10.50
2023-01-23T14:23:41.593Z,9.80
2023-01-23T14:26:09.992Z,11.05
2023-01-23T14:28:37.460Z,11.88
2023-01-23T14:31:06.149Z,12.48
2023-01-23T14:33:40.824Z,12.63
2023-01-23T14:36:14.353Z,13.13
2023-01-23T14:38:44.267Z,11.80
2023-01-23T14:41:11.936Z,11.93
2023-01-23T14:43:41.111Z,11.65
2023-01-23T14:46:13.322Z,12.55
2023-01-23T14:48:43.658Z,12.50
2023-01-23T14:51:18.797Z,12.00
2023-01-23T14:53:54.211Z,11.52
2023-01-23T14:56:24.884Z,12.05
2023-01-23T14:58:52.937Z,12.65
2023-01-23T15:01:21.014Z,10.80
2023-01-23T15:03:56.182Z,11.15
2023-01-23T15:06:24.615Z,11.40
2023-01-23T15:08:53.310Z,11.40
2023-01-23T15:11:26.082Z,10.52
2023-01-23T15:13:55.168Z,11.63
2023-01-23T15:16:23.544Z,11.02
2023-01-23T15:18:59.501Z,11.70
2023-01-23T15:21:29.062Z,11.27
2023-01-23T15:24:04.282Z,12.10
2023-01-23T15:26:34.024Z,12.25
2023-01-23T15:29:03.632Z,12.70
2023-01-23T15:31:34.778Z,12.80
2023-01-23T15:34:17.826Z,14.13
2023-01-23T15:36:47.159Z,13.55
2023-01-23T15:39:19.579Z,13.20
2023-01-23T15:41:48.694Z,13.52
2023-01-23T15:44:16.825Z,12.55
2023-01-23T15:46:44.184Z,14.75
2023-01-23T15:49:24.495Z,13.95
2023-01-23T15:51:53.224Z,14.77
2023-01-23T15:54:25.182Z,15.13
2023-01-23T15:57:06.524Z,14.98
2023-01-23T15:59:35.095Z,15.05
2023-01-23T16:02:04.480Z,14.88
2023-01-23T16:04:31.803Z,14.70
2023-01-23T16:07:00.907Z,15.15
2023-01-23T16:09:31.406Z,15.65
2023-01-23T16:11:59.864Z,14.35
2023-01-23T16:14:27.476Z,15.90
2023-01-23T16:16:58.299Z,14.63
2023-01-23T16:19:32.656Z,14.75
2023-01-23T16:22:05.416Z,15.35
2023-01-23T16:24:37.440Z,16.00
2023-01-23T16:27:05.389Z,16.25
2023-01-23T16:29:35.873Z,16.13
2023-01-23T16:32:03.820Z,15.80
2023-01-23T16:34:31.918Z,15.02
2023-01-23T16:37:00.694Z,15.60
2023-01-23T16:39:28.419Z,15.98
2023-01-23T16:41:57.131Z,16.55
2023-01-23T16:44:24.723Z,17.00
2023-01-23T16:46:53.109Z,16.98
2023-01-23T16:49:21.242Z,16.27
2023-01-23T16:51:52.558Z,15.13
2023-01-23T16:54:21.061Z,15.63
2023-01-23T16:56:50.794Z,16.13
2023-01-23T16:59:20.617Z,15.95
2023-01-23T17:01:50.613Z,16.85
2023-01-23T17:04:20.486Z,16.25
2023-01-23T17:06:48.021Z,17.10
2023-01-23T17:09:15.754Z,17.52
2023-01-23T17:11:43.962Z,16.92
2023-01-23T17:14:15.872Z,17.25
2023-01-23T17:16:45.169Z,17.08
2023-01-23T17:19:17.838Z,17.27
2023-01-23T17:21:45.412Z,17.35
2023-01-23T17:24:14.659Z,18.05
2023-01-23T17:26:42.045Z,16.35
2023-01-23T17:29:09.480Z,16.50
2023-01-23T17:31:38.443Z,16.60
2023-01-23T17:34:07.538Z,17.05
2023-01-23T17:36:35.130Z,17.65
2023-01-23T17:39:04.525Z,17.38
2023-01-23T17:41:33.038Z,17.27
2023-01-23T17:44:00.736Z,17.02
2023-01-23T17:46:29.294Z,17.02
2023-01-23T17:48:57.202Z,17.90
2023-01-23T17:51:26.665Z,17.60
2023-01-23T17:53:54.947Z,19.00
2023-01-23T17:56:22.318Z,17.85
2023-01-23T17:58:49.685Z,15.43
2023-01-23T18:01:19.374Z,14.63
2023-01-23T18:03:49.546Z,14.80
2023-01-23T18:06:16.931Z,14.93
2023-01-23T18:08:45.760Z,14.50
2023-01-23T18:11:17.715Z,13.88
2023-01-23T18:13:49.733Z,13.65
2023-01-23T18:16:21.204Z,14.27
2023-01-23T18:18:52.844Z,14.93
2023-01-23T18:21:21.259Z,15.10
2023-01-23T18:23:50.838Z,13.27
2023-01-23T18:26:25.617Z,14.05
2023-01-23T18:29:08.044Z,13.93
2023-01-23T18:31:40.759Z,14.00
2023-01-23T18:34:12.973Z,15.02
2023-01-23T18:36:47.576Z,14.35
2023-01-23T18:39:39.777Z,15.90
2023-01-23T18:42:15.169Z,13.77
2023-01-23T18:44:43.500Z,15.30
2023-01-23T18:47:12.332Z,16.50
2023-01-23T18:49:40.936Z,16.50
2023-01-23T18:52:09.983Z,15.90
2023-01-23T18:54:39.786Z,15.82
2023-01-23T18:57:14.993Z,16.50
2023-01-23T18:59:49.194Z,15.23
2023-01-23T19:02:23.483Z,15.50
2023-01-23T19:04:55.699Z,17.02
2023-01-23T19:07:23.344Z,15.73
2023-01-23T19:09:50.901Z,16.42
2023-01-23T19:12:25.770Z,16.50
2023-01-23T19:15:11.009Z,15.38
2023-01-23T19:20:17.045Z,20.67
2023-01-23T19:22:52.164Z,21.05
2023-01-23T19:25:20.209Z,19.60
2023-01-23T19:27:52.201Z,13.05
2023-01-23T19:30:20.802Z,13.75
2023-01-23T19:32:48.401Z,13.75
2023-01-23T19:35:17.128Z,12.73
2023-01-23T19:37:45.224Z,14.02
2023-01-23T19:40:14.023Z,15.13
2023-01-23T19:42:51.105Z,14.98
2023-01-23T19:45:21.218Z,14.88
2023-01-23T19:47:49.292Z,17.33
2023-01-23T19:50:18.813Z,15.63
2023-01-23T19:56:39.874Z,16.42
2023-01-23T19:59:08.129Z,15.32
2023-01-23T20:01:36.969Z,15.65
2023-01-23T20:04:04.589Z,15.25
2023-01-23T20:06:38.699Z,15.95
2023-01-23T20:09:06.024Z,15.43
2023-01-23T20:11:33.385Z,15.50
2023-01-23T20:14:00.949Z,14.60
2023-01-23T20:16:28.427Z,14.55
2023-01-23T20:18:56.021Z,14.38
2023-01-23T20:21:24.606Z,14.52
2023-01-23T20:23:53.571Z,15.15
2023-01-23T20:26:21.525Z,15.43
2023-01-23T20:28:49.540Z,15.27
2023-01-23T20:31:17.254Z,14.93
2023-01-23T20:33:44.961Z,15.48
2023-01-23T20:36:13.293Z,14.90
2023-01-23T20:38:40.973Z,13.88
2023-01-23T20:41:11.592Z,13.80
2023-01-23T20:43:39.476Z,14.27
2023-01-23T20:46:07.629Z,14.55
2023-01-23T20:48:35.257Z,12.88
2023-01-23T20:51:02.831Z,13.88
2023-01-23T20:53:32.030Z,14.07
2023-01-23T20:56:00.324Z,15.10
2023-01-23T20:58:46.403Z,14.20
2023-01-23T21:01:14.507Z,15.18
2023-01-23T21:03:41.966Z,15.13
2023-01-23T21:06:09.705Z,14.60
2023-01-23T21:08:37.376Z,14.07
2023-01-23T21:11:05.286Z,13.43
2023-01-23T21:13:33.966Z,13.00
2023-01-23T21:16:02.317Z,13.88
2023-01-23T21:18:29.718Z,13.27
2023-01-23T21:21:02.553Z,15.40
2023-01-23T21:23:29.896Z,15.00
2023-01-23T21:25:58.283Z,16.60
2023-01-23T21:28:25.649Z,18.52
2023-01-23T21:30:54.318Z,25.92
2023-01-23T21:33:24.087Z,24.17
2023-01-23T21:35:51.851Z,13.30
2023-01-23T21:38:19.650Z,16.25
2023-01-23T21:40:47.069Z,15.60
2023-01-23T21:43:14.545Z,14.90
2023-01-23T21:45:42.551Z,14.50
2023-01-23T21:48:11.206Z,14.82
2023-01-23T21:50:38.536Z,15.40
2023-01-23T21:53:07.169Z,16.58
2023-01-23T21:55:34.589Z,15.70
2023-01-23T21:58:01.917Z,15.60
2023-01-23T22:00:46.702Z,14.85
2023-01-23T22:03:15.520Z,19.00
2023-01-23T22:05:42.863Z,15.98
2023-01-23T22:08:10.234Z,14.40
2023-01-23T22:10:37.541Z,15.10
2023-01-23T22:13:04.821Z,15.30
2023-01-23T22:15:32.186Z,14.57
2023-01-23T22:17:59.744Z,15.15
2023-01-23T22:20:28.444Z,14.38
2023-01-23T22:22:55.983Z,14.95
2023-01-23T22:25:23.530Z,15.43
2023-01-23T22:27:50.971Z,15.00
2023-01-23T22:30:18.595Z,14.55
2023-01-23T22:32:45.885Z,16.33
2023-01-23T22:35:14.068Z,16.33
2023-01-23T22:37:44.087Z,15.88
2023-01-23T22:40:12.289Z,15.52
2023-01-23T22:42:39.757Z,15.82
2023-01-23T22:45:09.622Z,16.98
2023-01-23T22:47:37.216Z,18.52
2023-01-23T22:50:04.786Z,18.65
2023-01-23T22:52:32.193Z,17.25
2023-01-23T22:55:00.860Z,18.33
2023-01-23T22:57:28.245Z,20.35
2023-01-23T22:59:55.528Z,20.02
2023-01-23T23:02:22.932Z,19.58
2023-01-23T23:04:51.493Z,17.75
2023-01-23T23:07:18.883Z,16.38
2023-01-23T23:09:46.480Z,17.38
2023-01-23T23:12:15.122Z,17.75
2023-01-23T23:14:42.620Z,19.20
2023-01-23T23:17:11.369Z,19.48
2023-01-23T23:19:38.663Z,18.20
2023-01-23T23:22:06.636Z,17.85
2023-01-23T23:24:34.000Z,17.42
2023-01-23T23:27:01.343Z,18.20
2023-01-23T23:29:29.984Z,16.27
2023-01-23T23:31:57.628Z,17.10
2023-01-23T23:34:24.995Z,16.08
2023-01-23T23:36:52.352Z,17.30
2023-01-23T23:39:19.771Z,14.75
2023-01-23T23:41:47.112Z,15.10
2023-01-23T23:44:16.233Z,16.45
2023-01-23T23:46:45.109Z,17.15
2023-01-23T23:49:12.651Z,16.08
2023-01-23T23:51:40.202Z,15.38
2023-01-23T23:54:07.497Z,13.85
2023-01-23T23:56:35.081Z,14.88
2023-01-23T23:59:02.426Z,13.93
